Terminal Aerodrome Forecast
Issued by NWS Charleston, WV

Current Version | Previous Version | Graphics & Text | Print | Product List | Glossary On
Versions: 1 2 3 4 5 6 7 8 9 10 11 12 13 14 15 16 17 18 19 20 21 22 23 24
304
FTUS41 KRLX 142322
TAFHTS
TAF
KHTS 142322Z 1500/1524 20004KT P6SM SKC
     FM151300 22010KT P6SM SCT250
     FM151500 23012G21KT P6SM BKN040
     FM152000 25013G23KT 3SM TSRA BKN020CB
     FM152200 27014G24KT P6SM BKN045=

USA.gov is the U.S. government's official web portal to all federal, state and local government web resources and services.